Time;durP1;ratioP1;P1;durP2;ratioP2;P2;SDS_P1;SDS_P2;PMS_P1;PMS_P2;Temp;Humidity;BMP_temperature;BMP_pressure;BME280_temperature;BME280_humidity;BME280_pressure;Samples;Min_cycle;Max_cycle;Signal;HPM_P1;HPM_P2
2022/01/02 00:00:27;;;;;;;7.63;5.00;;;19.80;99.90;;;;;;4181703;28;20210;-79
2022/01/02 00:02:30;;;;;;;6.22;4.60;;;19.80;99.90;;;;;;4181545;28;20220;-79
2022/01/02 00:04:36;;;;;;;5.75;4.40;;;19.80;99.90;;;;;;4181315;28;20614;-79
2022/01/02 00:06:46;;;;;;;5.47;4.38;;;19.80;99.90;;;;;;4181353;28;20208;-79
2022/01/02 00:08:56;;;;;;;6.90;4.90;;;19.80;99.90;;;;;;4181280;28;20281;-79
2022/01/02 00:11:00;;;;;;;6.25;4.50;;;19.80;99.90;;;;;;4181968;28;20219;-79
2022/01/02 00:13:03;;;;;;;6.43;4.70;;;19.80;99.90;;;;;;4181580;28;20236;-79
2022/01/02 00:15:07;;;;;;;6.43;4.57;;;19.80;99.90;;;;;;4181304;28;20660;-79
2022/01/02 00:17:11;;;;;;;5.70;4.28;;;19.80;99.90;;;;;;4181242;28;21042;-79
2022/01/02 00:19:27;;;;;;;6.20;4.60;;;19.80;99.90;;;;;;4181398;28;20270;-79
2022/01/02 00:21:32;;;;;;;5.65;4.50;;;19.80;99.90;;;;;;4181613;28;20730;-79
2022/01/02 00:23:47;;;;;;;5.68;4.55;;;19.80;99.90;;;;;;4181310;28;20212;-79
2022/01/02 00:25:53;;;;;;;6.47;4.50;;;19.80;99.90;;;;;;4181682;28;20219;-79
2022/01/02 00:27:56;;;;;;;5.47;4.13;;;19.70;99.90;;;;;;4181698;28;20261;-79
2022/01/02 00:29:59;;;;;;;6.43;4.38;;;19.70;99.90;;;;;;4181411;28;20297;-79
2022/01/02 00:32:01;;;;;;;5.65;4.25;;;19.70;99.90;;;;;;4181882;28;20626;-79
2022/01/02 00:34:06;;;;;;;5.70;4.32;;;19.70;99.90;;;;;;4181089;28;20240;-79
2022/01/02 00:36:10;;;;;;;6.05;5.35;;;19.70;99.90;;;;;;4179645;28;20277;-79
2022/01/02 00:38:20;;;;;;;6.70;4.80;;;19.70;99.90;;;;;;4180886;28;20725;-79
2022/01/02 00:40:23;;;;;;;8.63;4.45;;;19.70;99.90;;;;;;4181407;28;20219;-79
2022/01/02 00:42:30;;;;;;;6.00;4.30;;;19.80;99.90;;;;;;4181450;28;20699;-79
2022/01/02 00:44:45;;;;;;;5.88;4.50;;;19.70;99.90;;;;;;4181214;28;20288;-79
2022/01/02 00:46:54;;;;;;;6.20;4.47;;;19.70;99.90;;;;;;4181538;28;20219;-79
2022/01/02 00:49:03;;;;;;;6.20;4.10;;;19.70;99.90;;;;;;4183502;28;20215;-79
2022/01/02 00:51:16;;;;;;;6.07;4.30;;;19.70;99.90;;;;;;4184839;28;20215;-79
2022/01/02 00:53:20;;;;;;;6.43;4.68;;;19.70;99.90;;;;;;4184517;28;20231;-79
2022/01/02 00:55:24;;;;;;;5.22;4.20;;;19.70;99.90;;;;;;4184474;28;20664;-79
2022/01/02 00:57:34;;;;;;;6.95;4.43;;;19.70;99.90;;;;;;4184663;28;20664;-79
2022/01/02 01:00:02;;;;;;;5.72;4.03;;;19.70;99.90;;;;;;4184554;28;20285;-79
2022/01/02 01:02:05;;;;;;;6.10;4.35;;;19.70;99.90;;;;;;4184261;28;20253;-79
2022/01/02 01:04:07;;;;;;;6.10;4.03;;;19.70;99.90;;;;;;4184794;28;20541;-79
2022/01/02 01:06:12;;;;;;;4.82;4.03;;;19.70;99.90;;;;;;4184660;28;20215;-81
2022/01/02 01:08:14;;;;;;;6.15;4.07;;;19.70;99.90;;;;;;4184618;28;20215;-82
2022/01/02 01:10:17;;;;;;;5.78;4.32;;;19.70;99.90;;;;;;4184407;28;20262;-82
2022/01/02 01:12:19;;;;;;;5.93;4.13;;;19.70;99.90;;;;;;4184476;28;20276;-82
2022/01/02 01:14:22;;;;;;;5.85;4.00;;;19.70;99.90;;;;;;4184399;28;20644;-79
2022/01/02 01:16:24;;;;;;;4.55;3.95;;;19.70;99.90;;;;;;4184141;28;20215;-79
2022/01/02 01:18:26;;;;;;;7.03;3.95;;;19.70;99.90;;;;;;4184014;28;20224;-79
2022/01/02 01:20:32;;;;;;;5.30;4.13;;;19.70;99.90;;;;;;4184404;28;20216;-79
2022/01/02 01:22:36;;;;;;;6.10;4.53;;;19.70;99.90;;;;;;4184462;28;20212;-82
2022/01/02 01:24:38;;;;;;;4.68;4.15;;;19.70;99.90;;;;;;4183896;28;20257;-82
2022/01/02 01:26:41;;;;;;;6.03;4.30;;;19.60;99.90;;;;;;4184178;28;20203;-81
2022/01/02 01:28:43;;;;;;;5.22;3.80;;;19.70;99.90;;;;;;4184291;28;20204;-82
2022/01/02 01:30:48;;;;;;;6.88;3.97;;;19.60;99.90;;;;;;4183975;28;20219;-81
2022/01/02 01:32:52;;;;;;;6.90;4.18;;;19.60;99.90;;;;;;4184056;28;20232;-81
2022/01/02 01:34:54;;;;;;;6.38;4.32;;;19.60;99.90;;;;;;4183737;28;20228;-81
2022/01/02 01:36:57;;;;;;;6.68;3.63;;;19.60;99.90;;;;;;4183969;28;20237;-81
2022/01/02 01:39:01;;;;;;;4.47;3.72;;;19.60;99.90;;;;;;4183770;28;20738;-81
2022/01/02 01:41:10;;;;;;;5.53;4.00;;;19.60;99.90;;;;;;4183742;28;20219;-81
2022/01/02 01:43:14;;;;;;;5.47;3.95;;;19.60;99.90;;;;;;4183597;28;20208;-81
2022/01/02 01:45:32;;;;;;;4.97;3.75;;;19.60;99.90;;;;;;4183493;28;20269;-81
2022/01/02 01:47:34;;;;;;;7.13;4.22;;;19.60;99.90;;;;;;4183922;28;20216;-81
2022/01/02 01:49:37;;;;;;;6.20;4.78;;;19.60;99.90;;;;;;4183335;28;20219;-81
2022/01/02 01:51:42;;;;;;;5.25;4.20;;;19.60;99.90;;;;;;4183752;28;20215;-81
2022/01/02 01:53:44;;;;;;;4.25;3.22;;;19.60;99.90;;;;;;4183983;28;20239;-81
2022/01/02 01:55:48;;;;;;;4.90;3.90;;;19.60;99.90;;;;;;4183550;28;20216;-81
2022/01/02 01:57:52;;;;;;;5.53;3.95;;;19.60;99.90;;;;;;4183503;28;20281;-81
2022/01/02 01:59:55;;;;;;;5.65;4.07;;;19.60;99.90;;;;;;4182518;28;20227;-81
2022/01/02 02:01:57;;;;;;;6.70;3.90;;;19.60;99.90;;;;;;4183569;28;20274;-81
2022/01/02 02:04:03;;;;;;;5.38;4.00;;;19.60;99.90;;;;;;4183547;28;20208;-81
2022/01/02 02:06:05;;;;;;;6.07;4.07;;;19.60;99.90;;;;;;4183756;28;20265;-81
2022/01/02 02:08:09;;;;;;;5.75;3.92;;;19.60;99.90;;;;;;4183706;28;20272;-81
2022/01/02 02:10:16;;;;;;;5.70;4.32;;;19.60;99.90;;;;;;4183531;28;20673;-81
2022/01/02 02:12:20;;;;;;;5.63;4.00;;;19.50;99.90;;;;;;4183612;28;20219;-81
2022/01/02 02:14:22;;;;;;;5.93;4.28;;;19.50;99.90;;;;;;4183530;28;20277;-81
2022/01/02 02:16:25;;;;;;;5.35;3.78;;;19.50;99.90;;;;;;4183186;28;20219;-81
2022/01/02 02:18:27;;;;;;;3.90;3.50;;;19.60;99.90;;;;;;4183278;28;20665;-81
2022/01/02 02:20:33;;;;;;;5.90;3.78;;;19.50;99.90;;;;;;4183348;28;20273;-81
2022/01/02 02:22:39;;;;;;;6.93;3.97;;;19.50;99.90;;;;;;4183092;28;20211;-81
2022/01/02 02:24:42;;;;;;;6.32;4.03;;;19.50;99.90;;;;;;4180515;28;20719;-81
2022/01/02 02:26:47;;;;;;;6.13;3.90;;;19.50;99.90;;;;;;4189109;28;20664;-81
2022/01/02 02:28:49;;;;;;;4.80;3.65;;;19.50;99.90;;;;;;4199503;28;20269;-81
2022/01/02 02:30:51;;;;;;;6.05;4.25;;;19.50;99.90;;;;;;4199752;28;20223;-81
2022/01/02 02:32:56;;;;;;;3.80;3.28;;;19.50;99.90;;;;;;4199336;28;20239;-81
2022/01/02 02:34:59;;;;;;;5.57;4.00;;;19.50;99.90;;;;;;4199387;28;20235;-81
2022/01/02 02:37:02;;;;;;;5.13;3.72;;;19.50;99.90;;;;;;4199711;28;20219;-81
2022/01/02 02:39:08;;;;;;;5.72;3.63;;;19.50;99.90;;;;;;4199670;28;20713;-81
2022/01/02 02:41:10;;;;;;;6.30;4.13;;;19.50;99.90;;;;;;4199515;28;20223;-81
2022/01/02 02:43:24;;;;;;;4.43;3.60;;;19.50;99.90;;;;;;4199781;28;20215;-81
2022/01/02 02:50:08;;;;;;;5.40;3.83;;;19.50;99.90;;;;;;4199764;28;20199;-81
2022/01/02 02:52:20;;;;;;;4.65;3.30;;;19.50;99.90;;;;;;4199764;28;20215;-81
2022/01/02 02:54:25;;;;;;;5.13;3.53;;;19.50;99.90;;;;;;4199307;28;20253;-81
2022/01/02 02:56:40;;;;;;;4.90;3.55;;;19.50;99.90;;;;;;4199251;28;20261;-81
2022/01/02 02:58:42;;;;;;;3.88;3.47;;;19.50;99.90;;;;;;4199297;28;20211;-81
2022/01/02 03:00:44;;;;;;;5.72;3.40;;;19.50;99.90;;;;;;4199662;28;20219;-81
2022/01/02 03:02:47;;;;;;;4.07;3.53;;;19.50;99.90;;;;;;4199068;28;20265;-81
2022/01/02 03:04:49;;;;;;;6.40;3.40;;;19.50;99.90;;;;;;4199202;28;20261;-81
2022/01/02 03:06:52;;;;;;;6.00;3.58;;;19.50;99.90;;;;;;4198956;28;20219;-81
2022/01/02 03:09:00;;;;;;;5.85;3.50;;;19.50;99.90;;;;;;4199133;28;20264;-81
2022/01/02 03:11:03;;;;;;;6.38;3.33;;;19.50;99.90;;;;;;4198737;28;20236;-81
2022/01/02 03:13:06;;;;;;;6.45;3.67;;;19.50;99.90;;;;;;4198942;28;20659;-81
2022/01/02 03:15:10;;;;;;;5.05;3.65;;;19.50;99.90;;;;;;4193808;28;20211;-81
2022/01/02 03:17:12;;;;;;;6.15;3.22;;;19.50;99.90;;;;;;4182287;28;20219;-81
2022/01/02 03:19:14;;;;;;;4.47;3.63;;;19.40;99.90;;;;;;4182499;28;20216;-81
2022/01/02 03:21:17;;;;;;;6.30;3.42;;;19.50;99.90;;;;;;4182458;28;20315;-81
2022/01/02 03:23:19;;;;;;;5.00;3.38;;;19.50;99.90;;;;;;4182523;28;20220;-81
2022/01/02 03:25:23;;;;;;;5.35;3.40;;;19.40;99.90;;;;;;4182058;28;20224;-81
2022/01/02 03:27:25;;;;;;;5.50;3.20;;;19.50;99.90;;;;;;4182199;28;20278;-81
2022/01/02 03:29:28;;;;;;;3.88;3.47;;;19.40;99.90;;;;;;4182529;28;20282;-81
2022/01/02 03:31:30;;;;;;;5.63;3.53;;;19.40;99.90;;;;;;4182121;28;20707;-81
2022/01/02 03:33:32;;;;;;;4.72;3.40;;;19.40;99.90;;;;;;4181926;28;20243;-80
2022/01/02 03:35:35;;;;;;;4.15;3.10;;;19.40;99.90;;;;;;4182011;28;20688;-81
2022/01/02 03:37:37;;;;;;;5.25;3.47;;;19.40;99.90;;;;;;4182006;28;20223;-81
2022/01/02 03:39:39;;;;;;;4.85;3.80;;;19.40;99.90;;;;;;4181981;28;20262;-81
2022/01/02 03:41:43;;;;;;;5.05;3.10;;;19.40;99.90;;;;;;4182589;28;20258;-81
2022/01/02 03:43:46;;;;;;;6.50;3.25;;;19.40;99.90;;;;;;4181639;28;20617;-81
2022/01/02 03:45:48;;;;;;;3.92;3.13;;;19.40;99.90;;;;;;4182118;28;20668;-81
2022/01/02 03:47:51;;;;;;;3.35;3.03;;;19.40;99.90;;;;;;4182248;28;20216;-81
2022/01/02 03:49:53;;;;;;;4.00;3.33;;;19.40;99.90;;;;;;4181962;28;20211;-81
2022/01/02 03:51:56;;;;;;;4.43;3.30;;;19.40;99.90;;;;;;4180040;28;20269;-81
2022/01/02 03:53:58;;;;;;;5.55;3.33;;;19.40;99.90;;;;;;4181638;28;20235;-81
2022/01/02 03:56:01;;;;;;;4.70;3.42;;;19.40;99.90;;;;;;4181723;28;20266;-81
2022/01/02 03:58:04;;;;;;;3.92;3.22;;;19.40;99.90;;;;;;4181088;28;20215;-82
2022/01/02 04:00:10;;;;;;;3.63;3.10;;;19.40;99.90;;;;;;4181298;28;20261;-81
2022/01/02 04:02:12;;;;;;;5.63;3.58;;;19.30;99.90;;;;;;4181594;28;20672;-82
2022/01/02 04:04:16;;;;;;;5.53;3.05;;;19.40;99.90;;;;;;4181861;28;20212;-81
2022/01/02 04:06:18;;;;;;;5.03;3.33;;;19.40;99.90;;;;;;4181882;28;20219;-81
2022/01/02 04:08:21;;;;;;;4.50;3.00;;;19.30;99.90;;;;;;4181742;28;20223;-81
2022/01/02 04:10:23;;;;;;;5.28;3.28;;;19.30;99.90;;;;;;4181486;28;20269;-81
2022/01/02 04:12:26;;;;;;;4.93;3.65;;;19.30;99.90;;;;;;4181019;28;20285;-81
2022/01/02 04:14:29;;;;;;;3.92;3.30;;;19.30;99.90;;;;;;4172321;28;20261;-81
2022/01/02 04:16:32;;;;;;;4.93;3.35;;;19.30;99.90;;;;;;4183037;28;20647;-81
2022/01/02 04:18:34;;;;;;;4.53;3.20;;;19.30;99.90;;;;;;4197795;28;20752;-81
2022/01/02 04:20:36;;;;;;;4.22;2.92;;;19.30;99.90;;;;;;4197731;28;20249;-81
2022/01/02 04:22:39;;;;;;;4.75;3.10;;;19.30;99.90;;;;;;4197390;28;20598;-81
2022/01/02 04:24:41;;;;;;;4.68;3.13;;;19.30;99.90;;;;;;4198513;28;20261;-81
2022/01/02 04:26:44;;;;;;;4.65;3.40;;;19.30;99.90;;;;;;4198025;28;20897;-81
2022/01/02 04:28:46;;;;;;;4.32;3.13;;;19.40;99.90;;;;;;4198455;28;20648;-81
2022/01/02 04:30:50;;;;;;;4.38;2.85;;;19.30;99.90;;;;;;4197801;28;20257;-81
2022/01/02 04:32:53;;;;;;;4.38;3.20;;;19.30;99.90;;;;;;4198082;28;20272;-81
2022/01/02 04:34:55;;;;;;;4.75;3.28;;;19.30;99.90;;;;;;4197469;28;20238;-81
2022/01/02 04:36:57;;;;;;;3.08;2.78;;;19.30;99.90;;;;;;4197723;28;20722;-81
2022/01/02 04:39:00;;;;;;;4.40;3.17;;;19.30;99.90;;;;;;4198072;28;20214;-81
2022/01/02 04:41:02;;;;;;;5.53;3.20;;;19.30;99.90;;;;;;4198095;28;20268;-81
2022/01/02 04:43:04;;;;;;;4.72;3.28;;;19.30;99.90;;;;;;4197896;28;20245;-81
2022/01/02 04:45:08;;;;;;;4.70;3.30;;;19.30;99.90;;;;;;4197972;28;20604;-81
2022/01/02 04:47:11;;;;;;;4.20;2.78;;;19.30;99.90;;;;;;4198193;28;20261;-81
2022/01/02 04:49:14;;;;;;;5.40;3.55;;;19.30;99.90;;;;;;4197627;28;20714;-81
2022/01/02 04:51:16;;;;;;;4.30;3.03;;;19.30;99.90;;;;;;4197884;28;20721;-81
2022/01/02 04:53:20;;;;;;;4.05;2.95;;;19.30;99.90;;;;;;4198077;28;20663;-81
2022/01/02 04:55:25;;;;;;;4.65;3.38;;;19.30;99.90;;;;;;4197665;28;20230;-81
2022/01/02 04:57:27;;;;;;;4.32;2.90;;;19.30;99.90;;;;;;4197489;28;20268;-81
2022/01/02 04:59:29;;;;;;;4.10;3.10;;;19.30;99.90;;;;;;4197784;28;20215;-81
2022/01/02 05:01:32;;;;;;;4.40;2.95;;;19.30;99.90;;;;;;4197696;28;20257;-81
2022/01/02 05:03:35;;;;;;;5.05;3.17;;;19.30;99.90;;;;;;4197748;28;20219;-81
2022/01/02 05:05:38;;;;;;;3.63;2.55;;;19.30;99.90;;;;;;4197653;28;20219;-81
2022/01/02 05:07:40;;;;;;;4.68;3.15;;;19.30;99.90;;;;;;4197563;28;20261;-81
2022/01/02 05:09:43;;;;;;;4.53;3.35;;;19.30;99.90;;;;;;4197548;28;20215;-81
2022/01/02 05:11:45;;;;;;;5.78;3.38;;;19.30;99.90;;;;;;4197001;28;20265;-81
2022/01/02 05:13:47;;;;;;;4.60;2.90;;;19.30;99.90;;;;;;4196764;28;20277;-81
2022/01/02 05:15:49;;;;;;;4.15;2.97;;;19.30;99.90;;;;;;4186450;28;20235;-81
2022/01/02 05:17:52;;;;;;;3.75;2.95;;;19.20;99.90;;;;;;4180406;28;20219;-81
2022/01/02 05:19:55;;;;;;;4.53;2.97;;;19.30;99.90;;;;;;4180571;28;20219;-81
2022/01/02 05:21:58;;;;;;;3.78;3.13;;;19.20;99.90;;;;;;4180555;28;20216;-81
2022/01/02 05:24:00;;;;;;;3.42;2.92;;;19.20;99.90;;;;;;4180942;28;20212;-81
2022/01/02 05:26:02;;;;;;;3.58;2.78;;;19.20;99.90;;;;;;4180952;28;20274;-81
2022/01/02 05:28:05;;;;;;;5.57;2.92;;;19.30;99.90;;;;;;4180737;28;20212;-81
2022/01/02 05:30:08;;;;;;;4.50;3.22;;;19.20;99.90;;;;;;4180690;28;20656;-81
2022/01/02 05:32:11;;;;;;;9.45;2.95;;;19.20;99.90;;;;;;4180530;28;20266;-81
2022/01/02 05:34:13;;;;;;;5.90;3.28;;;19.20;99.90;;;;;;4181320;28;20235;-81
2022/01/02 05:36:17;;;;;;;3.75;2.63;;;19.20;99.90;;;;;;4184048;28;20216;-81
2022/01/02 05:38:19;;;;;;;4.07;2.67;;;19.20;99.90;;;;;;4183991;28;20334;-81
2022/01/02 05:40:22;;;;;;;4.90;3.13;;;19.20;99.90;;;;;;4184115;28;20219;-81
2022/01/02 05:42:24;;;;;;;4.55;3.08;;;19.20;99.90;;;;;;4183675;28;20266;-81
2022/01/02 05:44:26;;;;;;;3.28;2.83;;;19.20;99.90;;;;;;4183908;28;20668;-81
2022/01/02 05:46:29;;;;;;;3.78;2.60;;;19.20;99.90;;;;;;4183631;28;20274;-81
2022/01/02 05:48:32;;;;;;;4.55;2.88;;;19.20;99.90;;;;;;4183937;28;20211;-81
2022/01/02 05:50:34;;;;;;;2.97;2.53;;;19.10;99.90;;;;;;4183559;28;20243;-81
2022/01/02 05:52:37;;;;;;;3.88;3.15;;;19.20;99.90;;;;;;4183909;28;20219;-81
2022/01/02 05:54:45;;;;;;;4.10;3.03;;;19.20;99.90;;;;;;4184188;28;20220;-81
2022/01/02 05:56:50;;;;;;;5.20;2.80;;;19.10;99.90;;;;;;4183695;28;20223;-81
2022/01/02 05:58:53;;;;;;;5.22;3.13;;;19.10;99.90;;;;;;4183567;28;20211;-81
2022/01/02 06:00:55;;;;;;;4.13;2.70;;;19.10;99.90;;;;;;4183748;28;20215;-81
2022/01/02 06:02:57;;;;;;;2.65;2.45;;;19.10;99.90;;;;;;4161505;28;20279;-81
2022/01/02 06:05:02;;;;;;;6.28;3.47;;;19.10;99.90;;;;;;4182810;28;20212;-81
2022/01/02 06:07:05;;;;;;;5.15;3.08;;;19.10;99.90;;;;;;4183454;28;20223;-81
2022/01/02 06:09:09;;;;;;;3.90;3.10;;;19.20;99.90;;;;;;4183682;28;20220;-81
2022/01/02 06:11:11;;;;;;;5.35;2.97;;;19.10;99.90;;;;;;4183406;28;20246;-81
2022/01/02 06:13:13;;;;;;;4.45;2.90;;;19.10;99.90;;;;;;4183524;28;20245;-81
2022/01/02 06:15:16;;;;;;;3.95;2.60;;;19.10;99.90;;;;;;4183541;28;20240;-81
2022/01/02 06:17:18;;;;;;;4.70;2.67;;;19.10;99.90;;;;;;4183243;28;20216;-81
2022/01/02 06:19:20;;;;;;;6.30;3.00;;;19.10;99.90;;;;;;4183306;28;20220;-81
2022/01/02 06:21:23;;;;;;;4.45;2.60;;;19.10;99.90;;;;;;4183105;28;20216;-81
2022/01/02 06:23:25;;;;;;;3.38;2.65;;;19.10;99.90;;;;;;4183429;28;20326;-81
2022/01/02 06:25:28;;;;;;;3.33;2.67;;;19.10;99.90;;;;;;4183470;28;20730;-81
2022/01/02 06:27:31;;;;;;;4.13;3.10;;;19.10;99.90;;;;;;4183284;28;20212;-81
2022/01/02 06:29:33;;;;;;;4.28;2.83;;;19.10;99.90;;;;;;4183286;28;20281;-81
2022/01/02 06:31:36;;;;;;;4.32;2.30;;;19.10;99.90;;;;;;4182991;28;20253;-81
2022/01/02 06:33:38;;;;;;;2.78;2.45;;;19.10;99.90;;;;;;4185031;28;20280;-81
2022/01/02 06:35:41;;;;;;;3.58;2.63;;;19.10;99.90;;;;;;4199940;28;20238;-81
2022/01/02 06:37:43;;;;;;;2.50;2.25;;;19.10;99.90;;;;;;4199800;28;20604;-81
2022/01/02 06:39:45;;;;;;;3.35;2.40;;;19.10;99.90;;;;;;4199908;28;20584;-81
2022/01/02 06:41:51;;;;;;;3.95;2.65;;;19.10;99.90;;;;;;4199529;28;20264;-81
2022/01/02 06:43:53;;;;;;;3.80;2.45;;;19.10;99.90;;;;;;4199675;28;20664;-81
2022/01/02 06:45:55;;;;;;;3.33;2.40;;;19.10;99.90;;;;;;4199045;28;20660;-81
2022/01/02 06:47:59;;;;;;;4.25;2.67;;;19.10;99.90;;;;;;4199227;28;20272;-81
2022/01/02 06:50:01;;;;;;;4.07;2.70;;;19.10;99.90;;;;;;4199545;28;20219;-81
2022/01/02 06:52:04;;;;;;;3.13;2.63;;;19.10;99.90;;;;;;4199841;28;20264;-81
2022/01/02 06:54:06;;;;;;;3.88;3.10;;;19.10;99.90;;;;;;4199161;28;20211;-81
2022/01/02 06:56:09;;;;;;;4.32;2.70;;;19.10;99.90;;;;;;4199635;28;20239;-81
2022/01/02 06:58:14;;;;;;;3.60;2.50;;;19.10;99.90;;;;;;4199117;28;20671;-81
2022/01/02 07:00:17;;;;;;;2.67;2.30;;;19.00;99.90;;;;;;4199281;28;20215;-81
2022/01/02 07:02:19;;;;;;;4.20;2.55;;;19.10;99.90;;;;;;4199393;28;20264;-81
2022/01/02 07:04:21;;;;;;;4.85;2.83;;;19.10;99.90;;;;;;4199195;28;20256;-81
2022/01/02 07:06:24;;;;;;;3.85;2.45;;;19.10;99.90;;;;;;4199189;28;20609;-81
2022/01/02 07:08:27;;;;;;;3.83;2.55;;;19.10;99.90;;;;;;4199116;28;20222;-81
2022/01/02 07:10:30;;;;;;;4.05;2.65;;;19.00;99.90;;;;;;4199256;28;20589;-81
2022/01/02 07:12:32;;;;;;;2.63;2.38;;;19.10;99.90;;;;;;4199299;28;20219;-81
2022/01/02 07:14:36;;;;;;;4.28;2.72;;;19.10;99.90;;;;;;4198677;28;20211;-81
2022/01/02 07:16:38;;;;;;;3.28;2.50;;;19.10;99.90;;;;;;4182148;28;20652;-81
2022/01/02 07:18:40;;;;;;;3.58;2.53;;;19.10;99.90;;;;;;4182615;28;20220;-81
2022/01/02 07:20:44;;;;;;;3.83;2.60;;;19.10;99.90;;;;;;4182470;28;20215;-81
2022/01/02 07:22:47;;;;;;;3.88;2.53;;;19.10;99.90;;;;;;4182638;28;20266;-81
2022/01/02 07:24:51;;;;;;;4.38;2.45;;;19.00;99.90;;;;;;4182242;28;20223;-81
2022/01/02 07:26:54;;;;;;;3.58;2.42;;;19.10;99.90;;;;;;4182251;28;20212;-81
2022/01/02 07:28:56;;;;;;;4.93;2.35;;;19.00;99.90;;;;;;4182099;28;20219;-81
2022/01/02 07:31:00;;;;;;;3.22;2.35;;;19.00;99.90;;;;;;4182066;28;20223;-81
2022/01/02 07:33:02;;;;;;;2.65;2.15;;;19.00;99.90;;;;;;4182157;28;20215;-81
2022/01/02 07:35:06;;;;;;;4.20;2.53;;;19.00;99.90;;;;;;4182086;28;20227;-81
2022/01/02 07:37:09;;;;;;;3.53;2.38;;;19.00;99.90;;;;;;4181631;28;20243;-81
2022/01/02 07:39:11;;;;;;;3.17;2.40;;;19.00;99.90;;;;;;4182151;28;20254;-81
2022/01/02 07:41:14;;;;;;;4.05;2.60;;;19.00;99.90;;;;;;4182039;28;20670;-81
2022/01/02 07:43:16;;;;;;;3.85;2.38;;;19.00;99.90;;;;;;4181888;28;20619;-82
2022/01/02 07:45:19;;;;;;;2.67;2.25;;;19.00;99.90;;;;;;4181784;28;20245;-81
2022/01/02 07:47:22;;;;;;;5.68;2.80;;;19.00;99.90;;;;;;4181984;28;20242;-81
2022/01/02 07:49:27;;;;;;;2.55;2.10;;;19.00;99.90;;;;;;4180084;28;20211;-81
2022/01/02 07:51:29;;;;;;;2.75;2.20;;;19.00;99.90;;;;;;4182131;28;20224;-81
2022/01/02 07:53:32;;;;;;;2.78;2.00;;;19.00;99.90;;;;;;4198309;28;20265;-81
2022/01/02 07:55:34;;;;;;;4.72;2.67;;;19.00;99.90;;;;;;4198127;28;20215;-80
2022/01/02 07:57:37;;;;;;;3.72;2.72;;;19.00;99.90;;;;;;4197883;28;20660;-80
2022/01/02 07:59:39;;;;;;;3.45;2.38;;;19.00;99.90;;;;;;4198074;28;20265;-80
2022/01/02 08:01:42;;;;;;;4.28;2.70;;;19.00;99.90;;;;;;4198671;28;20241;-80
2022/01/02 08:03:45;;;;;;;3.00;2.22;;;19.00;99.90;;;;;;4198251;28;20215;-80
2022/01/02 08:05:48;;;;;;;3.33;2.40;;;19.00;99.90;;;;;;4198523;28;20257;-80
2022/01/02 08:07:51;;;;;;;3.53;2.63;;;19.00;99.90;;;;;;4198679;28;20268;-80
2022/01/02 08:09:53;;;;;;;2.80;2.20;;;19.00;99.90;;;;;;4198121;28;20237;-80
2022/01/02 08:11:55;;;;;;;3.22;2.20;;;18.90;99.90;;;;;;4198080;28;20211;-80
2022/01/02 08:13:57;;;;;;;3.28;2.22;;;18.90;99.90;;;;;;4198265;28;20257;-80
2022/01/02 08:16:00;;;;;;;4.05;2.38;;;18.90;99.90;;;;;;4185843;28;20271;-80
2022/01/02 08:18:02;;;;;;;4.28;2.50;;;18.90;99.90;;;;;;4181683;28;20270;-80
2022/01/02 08:20:07;;;;;;;4.00;2.60;;;18.90;99.90;;;;;;4181370;28;20210;-80
2022/01/02 08:22:09;;;;;;;2.42;2.22;;;18.90;99.90;;;;;;4181430;28;20227;-80
2022/01/02 08:24:12;;;;;;;2.97;2.10;;;19.00;99.90;;;;;;4181587;28;20289;-80
2022/01/02 08:26:14;;;;;;;3.30;2.25;;;18.90;99.90;;;;;;4181407;28;20204;-80
2022/01/02 08:28:16;;;;;;;3.30;2.40;;;18.90;99.90;;;;;;4181688;28;20223;-80
2022/01/02 08:30:19;;;;;;;3.67;2.50;;;18.90;99.90;;;;;;4181348;28;20220;-80
2022/01/02 08:32:21;;;;;;;3.67;2.50;;;19.00;99.90;;;;;;4181352;28;20247;-80
2022/01/02 08:34:23;;;;;;;2.80;2.20;;;19.00;99.90;;;;;;4180934;28;20244;-80
2022/01/02 08:36:27;;;;;;;2.75;2.28;;;18.90;99.90;;;;;;4181125;28;20265;-80
2022/01/02 08:38:30;;;;;;;3.40;2.38;;;18.90;99.90;;;;;;4181396;28;20273;-80
2022/01/02 08:40:32;;;;;;;3.00;2.60;;;19.00;99.90;;;;;;4181176;28;20216;-80
2022/01/02 08:42:35;;;;;;;3.50;2.65;;;18.90;99.90;;;;;;4181046;28;20216;-80
2022/01/02 08:44:38;;;;;;;4.28;2.40;;;19.00;99.90;;;;;;4181209;28;20216;-80
2022/01/02 08:46:40;;;;;;;3.60;2.50;;;18.90;99.90;;;;;;4181080;28;20216;-80
2022/01/02 08:48:42;;;;;;;2.83;2.22;;;18.90;99.90;;;;;;4180972;28;20266;-80
2022/01/02 08:50:45;;;;;;;3.38;2.38;;;18.90;99.90;;;;;;4180918;28;20211;-79
2022/01/02 08:52:48;;;;;;;2.92;2.40;;;18.90;99.90;;;;;;4181339;28;20219;-80
2022/01/02 08:54:51;;;;;;;3.40;2.15;;;18.90;99.90;;;;;;4180967;28;20270;-80
2022/01/02 08:56:53;;;;;;;3.35;2.50;;;18.90;99.90;;;;;;4181006;28;20285;-80
2022/01/02 08:58:55;;;;;;;2.83;2.33;;;18.90;99.90;;;;;;4181280;28;20212;-80
2022/01/02 09:01:00;;;;;;;2.92;2.38;;;18.90;99.90;;;;;;4181105;28;20215;-80
2022/01/02 09:03:02;;;;;;;2.92;2.58;;;18.90;99.90;;;;;;4181299;28;20216;-80
2022/01/02 09:05:06;;;;;;;3.22;2.25;;;18.90;99.90;;;;;;4180919;28;20734;-80
2022/01/02 09:07:09;;;;;;;3.22;2.15;;;18.90;99.90;;;;;;4181114;28;20258;-80
2022/01/02 09:09:12;;;;;;;2.75;2.20;;;18.90;99.90;;;;;;4181815;28;20204;-79
2022/01/02 09:11:15;;;;;;;2.42;2.22;;;18.90;99.90;;;;;;4183841;28;20616;-80
2022/01/02 09:13:21;;;;;;;4.55;2.53;;;18.90;99.90;;;;;;4183491;28;20208;-80
2022/01/02 09:15:24;;;;;;;2.53;2.10;;;18.90;99.90;;;;;;4176007;28;20208;-80
2022/01/02 09:17:26;;;;;;;3.47;2.50;;;18.90;99.90;;;;;;4166775;28;20236;-80
2022/01/02 09:19:28;;;;;;;2.58;2.20;;;18.90;99.90;;;;;;4167269;28;20711;-80
2022/01/02 09:21:31;;;;;;;2.97;1.77;;;18.90;99.90;;;;;;4167175;28;20220;-80
2022/01/02 09:23:33;;;;;;;2.60;2.20;;;18.90;99.90;;;;;;4166800;28;20266;-80
2022/01/02 09:25:37;;;;;;;3.15;2.45;;;18.90;99.90;;;;;;4167830;28;20224;-80
2022/01/02 09:27:41;;;;;;;2.90;2.30;;;18.90;99.90;;;;;;4167217;28;20217;-80
2022/01/02 09:29:43;;;;;;;3.90;2.42;;;18.90;99.90;;;;;;4167274;28;20221;-80
2022/01/02 09:31:45;;;;;;;2.80;2.35;;;18.90;99.90;;;;;;4167597;28;20220;-80
2022/01/02 09:33:47;;;;;;;3.25;2.20;;;18.90;99.90;;;;;;4170900;28;20236;-80
2022/01/02 09:35:50;;;;;;;3.50;2.33;;;18.90;99.90;;;;;;4183867;28;20242;-80
2022/01/02 09:37:52;;;;;;;4.00;2.50;;;18.90;99.90;;;;;;4180243;28;21011;-80
2022/01/02 09:39:54;;;;;;;4.05;2.55;;;18.90;99.90;;;;;;4178375;28;20205;-80
2022/01/02 09:41:58;;;;;;;3.33;2.42;;;18.90;99.90;;;;;;4183818;28;20220;-80
2022/01/02 09:44:01;;;;;;;3.35;2.20;;;18.90;99.90;;;;;;4183901;28;20269;-80
2022/01/02 09:46:04;;;;;;;3.65;2.05;;;18.90;99.90;;;;;;4183580;28;20219;-80
2022/01/02 09:48:09;;;;;;;4.18;2.25;;;18.90;99.90;;;;;;4184166;28;20215;-80
2022/01/02 09:50:12;;;;;;;2.67;2.40;;;18.90;99.90;;;;;;4183827;28;20223;-80
2022/01/02 09:52:15;;;;;;;3.20;2.63;;;18.90;99.90;;;;;;4183927;28;20223;-80
2022/01/02 09:54:17;;;;;;;4.53;2.47;;;18.90;99.90;;;;;;4183645;28;20618;-80
2022/01/02 09:56:20;;;;;;;5.05;2.60;;;18.90;99.90;;;;;;4183565;28;20618;-80
2022/01/02 09:58:26;;;;;;;2.78;2.50;;;18.90;99.90;;;;;;4183595;28;20239;-80
2022/01/02 10:00:29;;;;;;;2.88;2.38;;;18.80;99.90;;;;;;4183780;28;20212;-80
2022/01/02 10:02:59;;;;;;;3.67;2.40;;;18.90;99.90;;;;;;4183520;28;20220;-80
2022/01/02 10:05:03;;;;;;;4.63;2.78;;;18.90;99.90;;;;;;4183451;28;20224;-80
2022/01/02 10:07:25;;;;;;;3.35;2.30;;;18.90;99.90;;;;;;4183549;28;20204;-80
2022/01/02 10:09:32;;;;;;;2.85;2.38;;;18.80;99.90;;;;;;4183867;28;20196;-80
2022/01/02 10:11:37;;;;;;;4.40;2.50;;;18.90;99.90;;;;;;4183153;28;20668;-80
2022/01/02 10:13:51;;;;;;;3.00;2.17;;;18.80;99.90;;;;;;4183446;28;20212;-80
2022/01/02 10:15:53;;;;;;;3.00;2.30;;;18.80;99.90;;;;;;4183244;28;20215;-80
2022/01/02 10:17:59;;;;;;;4.72;2.33;;;18.90;99.90;;;;;;4182793;28;20224;-80
2022/01/02 10:20:14;;;;;;;2.45;2.25;;;18.90;99.90;;;;;;4183330;28;20223;-80
2022/01/02 10:22:16;;;;;;;2.50;2.25;;;18.90;99.90;;;;;;4183075;28;20282;-80
2022/01/02 10:24:21;;;;;;;5.50;2.38;;;18.90;99.90;;;;;;4183483;28;20238;-80
2022/01/02 10:26:23;;;;;;;3.53;2.35;;;18.80;99.90;;;;;;4183310;28;20211;-80
2022/01/02 10:28:31;;;;;;;4.75;2.53;;;18.90;99.90;;;;;;4183169;28;20208;-80
2022/01/02 10:30:45;;;;;;;2.78;2.33;;;18.80;99.90;;;;;;4183427;28;20211;-80
2022/01/02 10:32:47;;;;;;;4.93;2.50;;;18.80;99.90;;;;;;4183579;28;20269;-80
2022/01/02 10:34:49;;;;;;;2.85;2.30;;;18.80;99.90;;;;;;4183129;28;20236;-80
2022/01/02 10:36:52;;;;;;;3.75;2.10;;;18.80;99.90;;;;;;4183358;28;20196;-80
2022/01/02 10:39:02;;;;;;;4.65;2.70;;;18.80;99.90;;;;;;4182856;28;20716;-80
2022/01/02 10:41:04;;;;;;;2.70;2.33;;;18.80;99.90;;;;;;4182815;28;20219;-80
2022/01/02 10:43:08;;;;;;;2.85;2.55;;;18.80;99.90;;;;;;4183396;28;20220;-80
2022/01/02 10:45:11;;;;;;;3.05;2.30;;;18.80;99.90;;;;;;4183066;28;20242;-80
2022/01/02 10:47:17;;;;;;;3.28;2.47;;;18.80;99.90;;;;;;4182868;28;20270;-80
2022/01/02 10:49:19;;;;;;;4.55;2.30;;;18.80;99.90;;;;;;4183314;28;20265;-80